Time;durP1;ratioP1;P1;durP2;ratioP2;P2;SDS_P1;SDS_P2;PMS_P1;PMS_P2;Temp;Humidity;BMP_temperature;BMP_pressure;BME280_temperature;BME280_humidity;BME280_pressure;Samples;Min_cycle;Max_cycle;Signal;HPM_P1;HPM_P2
2022/09/02 00:01:39;;;;;;;;;8.00;8.00;;;;;;;;4993935;27;46122;-74
2022/09/02 00:04:06;;;;;;;;;8.67;7.00;;;;;;;;4978870;28;45358;-74
2022/09/02 00:06:31;;;;;;;;;10.00;8.33;;;;;;;;4989399;27;45205;-74
2022/09/02 00:08:57;;;;;;;;;11.33;9.67;;;;;;;;4979919;28;45532;-74
2022/09/02 00:11:26;;;;;;;;;11.00;9.00;;;;;;;;4978514;27;48020;-74
2022/09/02 00:13:51;;;;;;;;;13.00;11.00;;;;;;;;4985158;27;45604;-74
2022/09/02 00:16:17;;;;;;;;;11.67;10.00;;;;;;;;4981015;27;45505;-74
2022/09/02 00:18:43;;;;;;;;;7.67;7.67;;;;;;;;4983332;27;45083;-74
2022/09/02 00:21:10;;;;;;;;;9.33;9.00;;;;;;;;4982990;28;46350;-74
2022/09/02 00:23:35;;;;;;;;;8.00;8.00;;;;;;;;4984997;27;45536;-74
2022/09/02 00:26:01;;;;;;;;;6.00;5.00;;;;;;;;4985221;27;45514;-74
2022/09/02 00:28:26;;;;;;;;;8.00;8.00;;;;;;;;4993424;28;45642;-74
2022/09/02 00:30:51;;;;;;;;;8.67;8.67;;;;;;;;4986535;28;45225;-74
2022/09/02 00:33:17;;;;;;;;;9.33;8.33;;;;;;;;4988868;27;45283;-74
2022/09/02 00:35:42;;;;;;;;;7.67;7.67;;;;;;;;4998828;27;45348;-74
2022/09/02 00:38:07;;;;;;;;;11.33;9.33;;;;;;;;4990432;28;45475;-74
2022/09/02 00:40:33;;;;;;;;;10.33;10.00;;;;;;;;4991976;27;45316;-73
2022/09/02 00:42:58;;;;;;;;;9.00;8.33;;;;;;;;4981311;27;45385;-73
2022/09/02 00:45:23;;;;;;;;;10.33;10.33;;;;;;;;4979659;28;45358;-74
2022/09/02 00:47:51;;;;;;;;;9.33;9.33;;;;;;;;4983623;28;45607;-74
2022/09/02 00:50:20;;;;;;;;;13.33;10.00;;;;;;;;4981299;28;45562;-73
2022/09/02 00:52:47;;;;;;;;;11.00;9.00;;;;;;;;4986759;27;45476;-74
2022/09/02 00:55:20;;;;;;;;;10.33;8.67;;;;;;;;4983132;28;45609;-74
2022/09/02 00:57:47;;;;;;;;;10.00;10.00;;;;;;;;4983402;27;45419;-74
2022/09/02 01:00:17;;;;;;;;;9.00;8.67;;;;;;;;4985895;27;45466;-73
2022/09/02 01:02:45;;;;;;;;;8.67;7.67;;;;;;;;4991104;27;45401;-74
2022/09/02 01:05:13;;;;;;;;;12.00;9.00;;;;;;;;4980098;28;45322;-73
2022/09/02 01:07:38;;;;;;;;;9.00;9.00;;;;;;;;4989693;27;46039;-74
2022/09/02 01:10:08;;;;;;;;;8.00;8.00;;;;;;;;4995208;28;45257;-73
2022/09/02 01:12:34;;;;;;;;;9.67;9.33;;;;;;;;4990558;27;45501;-73
2022/09/02 01:15:00;;;;;;;;;8.00;8.00;;;;;;;;4987985;28;45500;-73
2022/09/02 01:17:25;;;;;;;;;11.33;9.67;;;;;;;;4988467;27;45453;-73
2022/09/02 01:19:53;;;;;;;;;10.67;10.00;;;;;;;;4983664;27;45984;-73
2022/09/02 01:22:24;;;;;;;;;8.33;8.33;;;;;;;;4981778;27;45404;-73
2022/09/02 01:24:50;;;;;;;;;10.00;9.00;;;;;;;;4991345;27;45458;-73
2022/09/02 01:27:20;;;;;;;;;9.33;8.33;;;;;;;;4984052;28;45452;-73
2022/09/02 01:29:50;;;;;;;;;8.00;8.00;;;;;;;;4986791;28;45352;-73
2022/09/02 01:32:15;;;;;;;;;10.00;9.33;;;;;;;;4985878;28;45633;-73
2022/09/02 01:34:40;;;;;;;;;9.67;9.67;;;;;;;;4997794;27;45516;-73
2022/09/02 01:37:06;;;;;;;;;13.67;11.67;;;;;;;;4989378;28;45558;-73
2022/09/02 01:39:31;;;;;;;;;8.33;7.00;;;;;;;;4990407;28;45442;-73
2022/09/02 01:41:56;;;;;;;;;11.00;9.67;;;;;;;;4992793;28;45296;-74
2022/09/02 01:44:23;;;;;;;;;8.67;8.00;;;;;;;;4978767;27;45365;-73
2022/09/02 01:46:49;;;;;;;;;10.00;10.00;;;;;;;;4993096;27;45670;-74
2022/09/02 01:49:14;;;;;;;;;9.00;9.00;;;;;;;;4983328;27;46451;-73
2022/09/02 01:51:39;;;;;;;;;8.00;8.00;;;;;;;;4990411;28;45421;-73
2022/09/02 01:54:04;;;;;;;;;11.00;11.00;;;;;;;;4989928;27;45492;-73
2022/09/02 01:56:30;;;;;;;;;8.00;8.00;;;;;;;;4982661;27;45328;-73
2022/09/02 01:58:56;;;;;;;;;10.00;8.33;;;;;;;;4987672;27;45226;-73
2022/09/02 02:01:21;;;;;;;;;11.00;10.00;;;;;;;;4988492;27;45294;-73
2022/09/02 02:03:46;;;;;;;;;9.00;9.00;;;;;;;;4981504;28;45530;-73
2022/09/02 02:06:15;;;;;;;;;9.67;9.00;;;;;;;;4985955;28;45469;-73
2022/09/02 02:08:41;;;;;;;;;11.00;10.00;;;;;;;;4980048;27;45476;-73
2022/09/02 02:11:06;;;;;;;;;14.00;12.00;;;;;;;;4986268;28;45493;-73
2022/09/02 02:13:32;;;;;;;;;12.00;11.67;;;;;;;;4985689;28;45549;-73
2022/09/02 02:15:57;;;;;;;;;9.00;8.00;;;;;;;;4984220;28;46188;-73
2022/09/02 02:18:22;;;;;;;;;12.33;12.33;;;;;;;;4988216;28;46281;-73
2022/09/02 02:20:48;;;;;;;;;12.33;11.00;;;;;;;;4990216;27;45218;-73
2022/09/02 02:23:13;;;;;;;;;13.00;13.00;;;;;;;;4993372;27;45274;-73
2022/09/02 02:25:38;;;;;;;;;12.33;12.00;;;;;;;;4981006;27;45490;-73
2022/09/02 02:28:04;;;;;;;;;10.67;10.67;;;;;;;;4983062;28;46043;-73
2022/09/02 02:30:29;;;;;;;;;13.67;10.33;;;;;;;;4994973;27;45450;-73
2022/09/02 02:32:55;;;;;;;;;12.00;12.00;;;;;;;;4989363;28;45343;-73
2022/09/02 02:35:20;;;;;;;;;18.00;16.67;;;;;;;;5006055;27;45271;-73
2022/09/02 02:37:48;;;;;;;;;21.33;18.67;;;;;;;;4981867;28;45509;-73
2022/09/02 02:40:13;;;;;;;;;19.00;19.00;;;;;;;;4979111;28;45311;-73
2022/09/02 02:42:38;;;;;;;;;26.33;22.67;;;;;;;;4982143;28;45552;-73
2022/09/02 02:45:08;;;;;;;;;24.00;22.00;;;;;;;;4981435;28;45370;-73
2022/09/02 02:47:33;;;;;;;;;26.67;23.67;;;;;;;;4986367;28;45319;-73
2022/09/02 02:49:58;;;;;;;;;25.00;23.67;;;;;;;;4983289;28;45410;-75
2022/09/02 02:52:24;;;;;;;;;27.67;27.67;;;;;;;;4989147;28;45615;-72
2022/09/02 02:54:49;;;;;;;;;29.00;25.00;;;;;;;;4988129;28;46178;-72
2022/09/02 02:57:14;;;;;;;;;18.67;18.67;;;;;;;;4984257;28;45446;-72
2022/09/02 02:59:39;;;;;;;;;22.33;17.67;;;;;;;;4985191;28;45323;-72
2022/09/02 03:02:05;;;;;;;;;15.33;15.00;;;;;;;;4988046;28;45294;-72
2022/09/02 03:04:31;;;;;;;;;20.33;20.00;;;;;;;;4982468;28;45518;-72
2022/09/02 03:06:56;;;;;;;;;18.00;17.67;;;;;;;;4976100;28;46093;-72
2022/09/02 03:09:21;;;;;;;;;18.33;15.33;;;;;;;;4991499;27;45648;-73
2022/09/02 03:11:47;;;;;;;;;14.00;13.00;;;;;;;;4981285;28;45312;-72
2022/09/02 03:14:12;;;;;;;;;18.00;15.00;;;;;;;;4978792;27;45322;-73
2022/09/02 03:16:37;;;;;;;;;15.33;14.00;;;;;;;;4980228;28;45453;-73
2022/09/02 03:19:03;;;;;;;;;15.00;15.00;;;;;;;;4980593;28;45338;-72
2022/09/02 03:21:28;;;;;;;;;19.00;16.33;;;;;;;;4983512;28;45392;-72
2022/09/02 03:23:54;;;;;;;;;16.00;16.00;;;;;;;;4983113;27;45473;-72
2022/09/02 03:26:21;;;;;;;;;15.67;14.67;;;;;;;;4987216;28;46697;-72
2022/09/02 03:28:47;;;;;;;;;16.00;13.00;;;;;;;;4989129;27;45517;-72
2022/09/02 03:31:17;;;;;;;;;16.00;14.67;;;;;;;;4990157;27;45278;-73
2022/09/02 03:33:42;;;;;;;;;14.33;13.33;;;;;;;;4996647;27;45636;-73
2022/09/02 03:36:07;;;;;;;;;16.67;13.67;;;;;;;;5009160;27;45332;-73
2022/09/02 03:38:33;;;;;;;;;13.67;10.67;;;;;;;;4989143;28;45272;-72
2022/09/02 03:40:59;;;;;;;;;12.00;12.00;;;;;;;;4977621;27;45469;-72
2022/09/02 03:43:24;;;;;;;;;11.00;11.00;;;;;;;;4980644;28;46195;-72
2022/09/02 03:45:49;;;;;;;;;16.00;13.00;;;;;;;;4982373;27;45874;-72
2022/09/02 03:48:14;;;;;;;;;0.00;0.00;;;;;;;;4982617;28;45422;-72
2022/09/02 03:50:41;;;;;;;;;16.33;14.33;;;;;;;;4984036;27;45379;-72
2022/09/02 03:53:07;;;;;;;;;15.00;12.00;;;;;;;;4987887;27;45394;-72
2022/09/02 03:55:33;;;;;;;;;14.00;14.00;;;;;;;;4985788;28;46681;-72
2022/09/02 03:57:58;;;;;;;;;14.00;13.00;;;;;;;;4988059;28;45395;-72
2022/09/02 04:00:24;;;;;;;;;13.00;11.67;;;;;;;;4986879;27;45635;-74
2022/09/02 04:02:50;;;;;;;;;13.67;13.67;;;;;;;;4990122;27;45897;-72
2022/09/02 04:05:16;;;;;;;;;14.00;13.00;;;;;;;;4978299;28;46849;-72
2022/09/02 04:07:43;;;;;;;;;12.00;12.00;;;;;;;;4988437;28;45791;-72
2022/09/02 04:10:08;;;;;;;;;13.00;13.00;;;;;;;;4982744;27;45443;-73
2022/09/02 04:12:34;;;;;;;;;13.67;12.00;;;;;;;;4988803;28;45326;-75
2022/09/02 04:14:59;;;;;;;;;11.00;9.00;;;;;;;;4994055;27;45350;-72
2022/09/02 04:17:24;;;;;;;;;13.67;12.33;;;;;;;;4992383;27;45348;-75
2022/09/02 04:19:52;;;;;;;;;12.00;12.00;;;;;;;;4983238;27;45295;-73
2022/09/02 04:22:18;;;;;;;;;9.67;7.67;;;;;;;;4984723;27;45473;-72
2022/09/02 04:24:43;;;;;;;;;13.33;11.67;;;;;;;;4983909;28;46497;-72
2022/09/02 04:27:08;;;;;;;;;12.00;11.67;;;;;;;;4981972;27;45383;-72
2022/09/02 04:29:33;;;;;;;;;15.00;13.00;;;;;;;;4985273;28;45212;-72
2022/09/02 04:31:59;;;;;;;;;12.00;12.00;;;;;;;;4993482;27;45948;-73
2022/09/02 04:34:24;;;;;;;;;12.33;12.00;;;;;;;;5013442;27;46134;-72
2022/09/02 04:36:49;;;;;;;;;11.67;10.67;;;;;;;;4986106;27;45243;-72
2022/09/02 04:39:14;;;;;;;;;10.00;10.00;;;;;;;;4981810;28;45389;-73
2022/09/02 04:41:41;;;;;;;;;14.33;13.00;;;;;;;;4990010;28;45430;-72
2022/09/02 04:44:06;;;;;;;;;17.00;15.00;;;;;;;;4981331;28;45457;-72
2022/09/02 04:46:32;;;;;;;;;13.00;12.00;;;;;;;;4992685;27;48556;-70
2022/09/02 04:48:57;;;;;;;;;16.33;16.33;;;;;;;;4983921;27;45376;-73
2022/09/02 04:51:23;;;;;;;;;16.67;13.67;;;;;;;;4996918;27;45372;-72
2022/09/02 04:53:49;;;;;;;;;18.33;14.67;;;;;;;;4991137;27;46827;-73
2022/09/02 04:56:20;;;;;;;;;20.67;17.00;;;;;;;;4988825;28;45496;-71
2022/09/02 04:58:45;;;;;;;;;18.00;15.33;;;;;;;;4982912;27;45467;-71
2022/09/02 05:01:14;;;;;;;;;23.67;20.67;;;;;;;;4979574;28;45282;-73
2022/09/02 05:03:39;;;;;;;;;19.00;16.67;;;;;;;;4980680;27;45438;-72
2022/09/02 05:06:06;;;;;;;;;16.67;15.00;;;;;;;;4985221;27;45264;-73
2022/09/02 05:08:32;;;;;;;;;18.33;16.00;;;;;;;;4982637;28;45469;-72
2022/09/02 05:10:58;;;;;;;;;16.33;15.33;;;;;;;;4983012;28;45177;-72
2022/09/02 05:13:24;;;;;;;;;16.00;16.00;;;;;;;;4982509;28;45939;-72
2022/09/02 05:15:50;;;;;;;;;14.67;14.67;;;;;;;;4987815;28;46108;-72
2022/09/02 05:18:15;;;;;;;;;16.00;13.67;;;;;;;;4985951;28;45625;-71
2022/09/02 05:20:42;;;;;;;;;19.00;18.00;;;;;;;;4987112;27;45571;-71
2022/09/02 05:23:07;;;;;;;;;16.67;16.67;;;;;;;;4985767;27;47249;-71
2022/09/02 05:25:33;;;;;;;;;19.67;16.00;;;;;;;;4988919;28;45314;-71
2022/09/02 05:27:58;;;;;;;;;20.33;17.67;;;;;;;;4988774;28;45514;-72
2022/09/02 05:30:23;;;;;;;;;16.67;16.67;;;;;;;;4981361;27;45360;-72
2022/09/02 05:32:49;;;;;;;;;21.00;17.67;;;;;;;;4982072;28;45670;-72
2022/09/02 05:35:14;;;;;;;;;21.33;17.67;;;;;;;;5008761;27;45334;-72
2022/09/02 05:37:39;;;;;;;;;21.00;18.67;;;;;;;;4988533;28;45504;-73
2022/09/02 05:40:05;;;;;;;;;20.00;19.33;;;;;;;;4984443;27;45483;-73
2022/09/02 05:42:30;;;;;;;;;17.00;15.00;;;;;;;;4989279;27;45323;-73
2022/09/02 05:44:56;;;;;;;;;17.67;16.67;;;;;;;;4989330;27;45265;-74
2022/09/02 05:47:21;;;;;;;;;17.33;16.00;;;;;;;;4994410;27;45458;-73
2022/09/02 05:49:46;;;;;;;;;20.67;19.00;;;;;;;;4977287;28;45319;-72
2022/09/02 05:52:12;;;;;;;;;21.33;19.33;;;;;;;;4982202;28;45248;-73
2022/09/02 05:54:37;;;;;;;;;21.33;21.33;;;;;;;;4981319;28;45286;-72
2022/09/02 05:57:07;;;;;;;;;24.67;24.67;;;;;;;;4987217;27;45407;-72
2022/09/02 05:59:37;;;;;;;;;31.33;26.00;;;;;;;;4982104;28;45927;-72
2022/09/02 06:02:02;;;;;;;;;22.00;21.00;;;;;;;;4984833;28;45473;-72
2022/09/02 06:04:28;;;;;;;;;21.00;20.67;;;;;;;;4977343;28;45347;-72
2022/09/02 06:06:53;;;;;;;;;26.33;24.00;;;;;;;;4984974;27;45277;-71
2022/09/02 06:09:20;;;;;;;;;23.00;23.00;;;;;;;;4980714;28;45276;-72
2022/09/02 06:11:48;;;;;;;;;22.33;21.00;;;;;;;;4986284;27;45425;-72
2022/09/02 06:14:14;;;;;;;;;25.33;21.33;;;;;;;;4993414;28;45431;-72
2022/09/02 06:16:39;;;;;;;;;24.00;20.33;;;;;;;;4993390;28;45452;-73
2022/09/02 06:19:05;;;;;;;;;20.33;19.00;;;;;;;;4990224;28;46827;-72
2022/09/02 06:21:31;;;;;;;;;20.33;18.67;;;;;;;;4994310;28;45863;-72
2022/09/02 06:23:57;;;;;;;;;20.00;19.00;;;;;;;;4989233;28;45469;-72
2022/09/02 06:26:22;;;;;;;;;21.67;19.00;;;;;;;;4995668;28;45436;-73
2022/09/02 06:28:47;;;;;;;;;19.67;17.00;;;;;;;;4990897;27;45670;-75
2022/09/02 06:31:18;;;;;;;;;19.33;18.33;;;;;;;;4990453;27;46364;-73
2022/09/02 06:33:44;;;;;;;;;20.67;18.00;;;;;;;;4996682;27;45510;-75
2022/09/02 06:36:10;;;;;;;;;19.33;18.00;;;;;;;;5013039;27;45406;-74
2022/09/02 06:38:42;;;;;;;;;18.67;18.67;;;;;;;;4983659;27;46903;-74
2022/09/02 06:41:09;;;;;;;;;19.33;17.00;;;;;;;;4992714;27;45410;-74
2022/09/02 06:43:35;;;;;;;;;18.33;15.00;;;;;;;;4980591;28;46048;-75
2022/09/02 06:46:00;;;;;;;;;19.00;17.00;;;;;;;;4976968;28;45343;-75
2022/09/02 06:48:25;;;;;;;;;16.00;16.00;;;;;;;;4979512;27;45517;-75
2022/09/02 06:50:50;;;;;;;;;16.67;14.67;;;;;;;;4981100;28;46147;-75
2022/09/02 06:53:18;;;;;;;;;21.33;17.33;;;;;;;;4981349;28;45242;-75
2022/09/02 06:55:43;;;;;;;;;14.00;14.00;;;;;;;;4982945;28;45305;-74
2022/09/02 06:58:09;;;;;;;;;19.33;17.00;;;;;;;;4983060;28;45277;-76
2022/09/02 07:00:35;;;;;;;;;18.33;18.33;;;;;;;;4984776;28;46172;-75
2022/09/02 07:05:44;;;;;;;;;16.67;16.67;;;;;;;;4997492;27;45519;-75
2022/09/02 07:08:10;;;;;;;;;19.33;18.00;;;;;;;;4984415;27;45211;-75
2022/09/02 07:10:38;;;;;;;;;17.00;15.00;;;;;;;;4999659;28;45676;-75
2022/09/02 07:13:04;;;;;;;;;19.33;18.00;;;;;;;;4988555;28;45331;-76
2022/09/02 07:15:29;;;;;;;;;18.67;16.67;;;;;;;;4998036;28;45350;-76
2022/09/02 07:17:54;;;;;;;;;24.33;17.00;;;;;;;;4984283;27;45429;-76
2022/09/02 07:20:20;;;;;;;;;17.00;15.33;;;;;;;;4985103;27;46869;-76
2022/09/02 07:22:45;;;;;;;;;17.67;16.33;;;;;;;;4982049;27;45390;-77
2022/09/02 07:25:10;;;;;;;;;18.00;17.00;;;;;;;;4987122;27;45341;-77
2022/09/02 07:27:36;;;;;;;;;22.00;17.67;;;;;;;;4984544;27;46207;-79
2022/09/02 07:30:03;;;;;;;;;21.00;17.67;;;;;;;;4989709;28;45659;-80
2022/09/02 07:32:30;;;;;;;;;18.00;17.00;;;;;;;;4990012;27;45327;-79
2022/09/02 07:34:55;;;;;;;;;17.67;17.67;;;;;;;;5014048;27;45295;-80
2022/09/02 07:37:20;;;;;;;;;16.67;16.00;;;;;;;;4980045;28;45390;-77
2022/09/02 07:39:45;;;;;;;;;20.67;17.00;;;;;;;;4987436;27;45212;-78
2022/09/02 07:42:11;;;;;;;;;17.67;16.00;;;;;;;;4984310;28;45215;-78
2022/09/02 07:44:36;;;;;;;;;16.67;14.67;;;;;;;;4984620;27;45439;-77
2022/09/02 07:47:02;;;;;;;;;12.33;12.33;;;;;;;;4992600;27;45657;-78
2022/09/02 07:49:27;;;;;;;;;17.33;13.67;;;;;;;;4992904;28;46004;-79
2022/09/02 07:51:52;;;;;;;;;20.33;18.00;;;;;;;;4994600;28;45396;-79
2022/09/02 07:54:19;;;;;;;;;16.67;16.67;;;;;;;;4993619;28;45530;-79
2022/09/02 07:56:44;;;;;;;;;16.00;16.00;;;;;;;;4994969;28;45433;-78
2022/09/02 07:59:10;;;;;;;;;19.67;17.33;;;;;;;;4985420;28;45392;-78
2022/09/02 08:01:35;;;;;;;;;21.33;19.00;;;;;;;;4979339;28;45513;-78
2022/09/02 08:04:01;;;;;;;;;18.67;17.00;;;;;;;;4982402;28;45474;-79
2022/09/02 08:06:27;;;;;;;;;17.00;17.00;;;;;;;;4994138;27;45453;-78
2022/09/02 08:08:53;;;;;;;;;17.00;16.00;;;;;;;;4991081;27;45387;-79
2022/09/02 08:11:18;;;;;;;;;15.33;14.00;;;;;;;;4994530;27;45446;-78
2022/09/02 08:13:44;;;;;;;;;16.00;15.67;;;;;;;;4983961;27;45460;-78
2022/09/02 08:16:09;;;;;;;;;15.00;12.00;;;;;;;;4979237;27;45569;-78
2022/09/02 08:18:35;;;;;;;;;13.00;13.00;;;;;;;;4984373;28;45429;-78
2022/09/02 08:21:01;;;;;;;;;19.00;17.33;;;;;;;;4980753;28;45217;-75
2022/09/02 08:23:26;;;;;;;;;17.00;15.33;;;;;;;;4989330;27;45351;-75
2022/09/02 08:25:51;;;;;;;;;17.00;17.00;;;;;;;;4983335;28;45154;-76
2022/09/02 08:28:16;;;;;;;;;15.00;15.00;;;;;;;;4986276;28;46212;-76
2022/09/02 08:30:42;;;;;;;;;18.33;15.00;;;;;;;;4984046;27;45356;-76
2022/09/02 08:33:07;;;;;;;;;20.00;16.33;;;;;;;;4993941;27;45846;-76
2022/09/02 08:35:32;;;;;;;;;17.67;16.33;;;;;;;;5011685;27;45281;-76
2022/09/02 08:37:58;;;;;;;;;18.67;17.67;;;;;;;;4985056;27;46185;-76
2022/09/02 08:40:26;;;;;;;;;17.67;16.33;;;;;;;;4990567;27;45738;-76
2022/09/02 08:42:55;;;;;;;;;15.67;15.00;;;;;;;;4987175;28;45454;-76
2022/09/02 08:45:24;;;;;;;;;21.33;16.67;;;;;;;;4977735;27;45422;-76
2022/09/02 08:47:54;;;;;;;;;16.67;14.67;;;;;;;;4982119;27;46241;-76
2022/09/02 08:50:19;;;;;;;;;15.00;15.00;;;;;;;;4979569;27;45236;-77
2022/09/02 08:52:52;;;;;;;;;19.33;17.67;;;;;;;;4979583;27;45228;-77
2022/09/02 08:55:20;;;;;;;;;14.00;14.00;;;;;;;;4982460;27;45395;-77
2022/09/02 08:57:45;;;;;;;;;19.33;17.33;;;;;;;;4982624;27;45248;-76
2022/09/02 09:00:12;;;;;;;;;17.33;17.00;;;;;;;;4979924;28;45169;-76
2022/09/02 09:02:55;;;;;;;;;17.67;17.00;;;;;;;;4983108;27;45361;-77
2022/09/02 09:05:23;;;;;;;;;17.33;15.67;;;;;;;;4982811;28;45512;-77
2022/09/02 09:07:58;;;;;;;;;20.33;18.33;;;;;;;;4990252;27;45556;-76
2022/09/02 09:10:23;;;;;;;;;21.00;18.00;;;;;;;;4995362;27;45299;-76
2022/09/02 09:13:04;;;;;;;;;16.75;15.25;;;;;;;;4987524;27;45333;-77
2022/09/02 09:15:39;;;;;;;;;17.00;15.00;;;;;;;;4983771;27;45207;-76
2022/09/02 09:18:07;;;;;;;;;16.67;15.00;;;;;;;;4986023;28;46248;-77
2022/09/02 09:20:40;;;;;;;;;20.00;16.67;;;;;;;;4985823;27;45343;-76
2022/09/02 09:23:26;;;;;;;;;17.67;17.67;;;;;;;;4988596;27;45454;-77
2022/09/02 09:25:54;;;;;;;;;18.33;17.33;;;;;;;;4990759;27;45189;-77
2022/09/02 09:28:19;;;;;;;;;18.00;17.33;;;;;;;;4987932;28;45465;-77
2022/09/02 09:30:45;;;;;;;;;22.00;18.67;;;;;;;;4988178;27;45497;-77
2022/09/02 09:33:13;;;;;;;;;17.33;17.33;;;;;;;;4988859;28;45383;-76
2022/09/02 09:35:49;;;;;;;;;16.00;13.67;;;;;;;;5014914;27;45526;-77
2022/09/02 09:38:15;;;;;;;;;17.67;14.67;;;;;;;;4977130;28;45636;-77
2022/09/02 09:40:40;;;;;;;;;16.00;14.33;;;;;;;;4976132;28;45428;-78
2022/09/02 09:43:07;;;;;;;;;18.33;17.33;;;;;;;;4985576;27;45450;-77
2022/09/02 09:45:33;;;;;;;;;15.67;15.67;;;;;;;;4983381;27;45469;-77
2022/09/02 09:48:17;;;;;;;;;16.33;13.67;;;;;;;;4990043;28;45467;-77
2022/09/02 09:50:43;;;;;;;;;16.67;16.67;;;;;;;;4987787;28;45380;-77
2022/09/02 09:53:17;;;;;;;;;16.67;16.67;;;;;;;;4981282;27;45370;-77
2022/09/02 09:56:15;;;;;;;;;20.67;16.67;;;;;;;;4980213;28;45505;-77
2022/09/02 09:58:40;;;;;;;;;19.33;18.00;;;;;;;;4960760;28;47397;-76
2022/09/02 10:01:11;;;;;;;;;17.67;15.33;;;;;;;;4985149;27;45355;-77
2022/09/02 10:03:40;;;;;;;;;15.67;15.67;;;;;;;;4984110;28;45327;-77
2022/09/02 10:06:25;;;;;;;;;22.33;19.00;;;;;;;;4986113;28;45402;-76
2022/09/02 10:08:52;;;;;;;;;19.67;18.00;;;;;;;;4988020;27;46236;-76
2022/09/02 10:11:28;;;;;;;;;20.00;19.00;;;;;;;;4992258;27;45429;-76
2022/09/02 10:14:04;;;;;;;;;21.67;19.67;;;;;;;;4988253;27;45398;-76
2022/09/02 10:16:36;;;;;;;;;22.33;20.67;;;;;;;;4989021;27;45815;-76
2022/09/02 10:19:09;;;;;;;;;18.67;16.33;;;;;;;;4983053;28;46354;-76
2022/09/02 10:21:53;;;;;;;;;19.00;17.33;;;;;;;;4983686;27;45425;-78
2022/09/02 10:24:25;;;;;;;;;19.00;17.67;;;;;;;;4989759;27;45458;-77
2022/09/02 10:26:53;;;;;;;;;22.00;20.00;;;;;;;;4981045;28;46824;-77
2022/09/02 10:29:42;;;;;;;;;25.33;19.67;;;;;;;;4984173;28;45759;-77
2022/09/02 10:32:26;;;;;;;;;14.33;12.67;;;;;;;;4982494;27;45344;-77
2022/09/02 10:34:51;;;;;;;;;20.33;18.67;;;;;;;;4983416;27;45414;-75
2022/09/02 10:37:18;;;;;;;;;24.33;21.67;;;;;;;;4990732;27;45595;-74
2022/09/02 10:39:46;;;;;;;;;18.33;17.00;;;;;;;;4986386;27;46035;-75
2022/09/02 10:42:18;;;;;;;;;18.00;17.00;;;;;;;;4993528;27;45451;-74
2022/09/02 10:44:53;;;;;;;;;24.67;17.67;;;;;;;;4989017;27;45240;-76
2022/09/02 10:47:39;;;;;;;;;21.67;18.67;;;;;;;;4988195;27;45626;-79
2022/09/02 10:50:13;;;;;;;;;20.00;18.00;;;;;;;;4993333;27;46074;-75
2022/09/02 10:52:57;;;;;;;;;16.00;14.33;;;;;;;;4990359;27;45366;-75
2022/09/02 10:55:49;;;;;;;;;19.00;18.00;;;;;;;;4989104;27;44826;-75
2022/09/02 10:58:24;;;;;;;;;19.67;19.67;;;;;;;;4989150;28;45904;-75
2022/09/02 11:00:51;;;;;;;;;19.67;17.33;;;;;;;;4985741;27;45571;-77
2022/09/02 11:03:22;;;;;;;;;22.00;19.00;;;;;;;;4989605;27;45363;-76
2022/09/02 11:05:57;;;;;;;;;19.00;15.67;;;;;;;;4987005;27;45367;-76
2022/09/02 11:08:33;;;;;;;;;17.00;16.00;;;;;;;;4983410;27;46396;-74
2022/09/02 11:11:10;;;;;;;;;17.67;17.67;;;;;;;;4987773;28;45802;-75
2022/09/02 11:13:44;;;;;;;;;19.67;17.67;;;;;;;;4990256;27;45543;-75
2022/09/02 11:16:32;;;;;;;;;24.67;22.33;;;;;;;;4989245;28;45459;-76
2022/09/02 11:19:00;;;;;;;;;15.00;15.00;;;;;;;;4982767;27;45430;-75
2022/09/02 11:21:34;;;;;;;;;19.67;19.33;;;;;;;;4992244;27;46375;-74
2022/09/02 11:24:11;;;;;;;;;23.67;20.33;;;;;;;;4988065;27;45603;-75
2022/09/02 11:26:56;;;;;;;;;25.00;21.00;;;;;;;;4995603;27;45198;-75
2022/09/02 11:29:28;;;;;;;;;22.00;21.33;;;;;;;;4988022;27;45354;-74
2022/09/02 11:32:01;;;;;;;;;19.33;19.33;;;;;;;;4980738;27;46232;-75
2022/09/02 11:34:33;;;;;;;;;20.67;17.67;;;;;;;;4981519;27;45414;-74
2022/09/02 11:36:59;;;;;;;;;22.00;22.00;;;;;;;;4992419;27;45524;-75
2022/09/02 11:39:30;;;;;;;;;25.67;24.67;;;;;;;;4982396;27;45367;-76
2022/09/02 11:42:05;;;;;;;;;23.67;23.00;;;;;;;;4995085;27;46187;-76
2022/09/02 11:44:30;;;;;;;;;23.00;23.00;;;;;;;;4994186;28;45293;-77
2022/09/02 11:47:01;;;;;;;;;24.33;23.00;;;;;;;;4993883;28;45470;-78
2022/09/02 11:49:38;;;;;;;;;23.67;21.67;;;;;;;;4994513;28;46111;-76
2022/09/02 11:52:42;;;;;;;;;24.00;24.00;;;;;;;;4993507;28;45543;-78
2022/09/02 11:55:10;;;;;;;;;20.67;20.67;;;;;;;;4965707;28;45452;-77
2022/09/02 11:57:40;;;;;;;;;28.00;25.00;;;;;;;;4959379;28;45518;-77
2022/09/02 12:00:06;;;;;;;;;26.67;25.33;;;;;;;;4967206;28;45348;-78
2022/09/02 12:02:45;;;;;;;;;28.67;26.67;;;;;;;;4991247;28;46089;-77
2022/09/02 12:05:29;;;;;;;;;21.67;21.67;;;;;;;;4993554;28;45359;-77
2022/09/02 12:08:10;;;;;;;;;25.33;24.00;;;;;;;;4992659;28;45288;-78
2022/09/02 12:10:42;;;;;;;;;26.00;25.33;;;;;;;;4992134;27;45692;-78
2022/09/02 12:13:08;;;;;;;;;27.67;25.67;;;;;;;;4987579;28;47125;-78
2022/09/02 12:15:34;;;;;;;;;25.00;23.67;;;;;;;;4994732;28;45344;-78
2022/09/02 12:18:18;;;;;;;;;27.67;26.33;;;;;;;;4991411;28;45498;-78
2022/09/02 12:20:43;;;;;;;;;25.33;22.33;;;;;;;;4994764;28;45716;-78
2022/09/02 12:23:10;;;;;;;;;25.00;24.33;;;;;;;;4991376;28;45878;-79
2022/09/02 12:25:37;;;;;;;;;24.67;23.67;;;;;;;;4991250;28;45441;-78
2022/09/02 12:28:17;;;;;;;;;24.67;24.00;;;;;;;;4987638;27;45322;-77
2022/09/02 12:30:54;;;;;;;;;22.33;22.00;;;;;;;;4977728;28;45222;-76
2022/09/02 12:33:33;;;;;;;;;21.33;21.33;;;;;;;;4978444;27;46068;-76
2022/09/02 12:35:59;;;;;;;;;26.67;22.00;;;;;;;;4998290;27;45283;-77
2022/09/02 12:38:26;;;;;;;;;22.67;19.67;;;;;;;;4984480;28;45487;-77
2022/09/02 12:40:58;;;;;;;;;23.67;21.67;;;;;;;;4984075;27;45529;-76
2022/09/02 12:43:25;;;;;;;;;21.67;19.67;;;;;;;;4989094;28;45401;-76
2022/09/02 12:45:52;;;;;;;;;23.67;22.00;;;;;;;;4993757;27;45277;-75
2022/09/02 12:48:22;;;;;;;;;25.00;23.67;;;;;;;;4980076;28;45275;-76
2022/09/02 12:50:53;;;;;;;;;25.00;23.33;;;;;;;;4981935;28;46723;-76
2022/09/02 12:53:36;;;;;;;;;21.33;21.00;;;;;;;;4979173;27;45355;-75
2022/09/02 12:56:07;;;;;;;;;24.33;24.33;;;;;;;;4980165;27;45312;-75
2022/09/02 12:58:44;;;;;;;;;24.33;23.00;;;;;;;;4982871;28;45285;-75
2022/09/02 13:01:18;;;;;;;;;26.33;24.00;;;;;;;;4983518;27;45415;-75
2022/09/02 13:03:53;;;;;;;;;28.33;22.67;;;;;;;;4968914;28;47997;-75
2022/09/02 13:06:18;;;;;;;;;29.67;24.33;;;;;;;;4991358;27;45526;-75
2022/09/02 13:08:43;;;;;;;;;24.00;24.00;;;;;;;;4990905;27;45691;-75
2022/09/02 13:11:27;;;;;;;;;22.00;20.00;;;;;;;;4996599;27;45703;-75
2022/09/02 13:14:12;;;;;;;;;20.67;19.33;;;;;;;;4981664;27;45759;-75
2022/09/02 13:16:40;;;;;;;;;26.67;25.00;;;;;;;;4992202;28;45517;-75
2022/09/02 13:19:15;;;;;;;;;24.00;20.00;;;;;;;;4987000;28;45387;-75
2022/09/02 13:21:40;;;;;;;;;23.33;20.67;;;;;;;;4988870;27;46227;-75
2022/09/02 13:24:05;;;;;;;;;22.00;20.00;;;;;;;;4987190;27;46292;-75
2022/09/02 13:26:33;;;;;;;;;25.00;21.33;;;;;;;;4981043;27;45236;-75
2022/09/02 13:28:59;;;;;;;;;21.00;20.00;;;;;;;;4988883;28;45387;-75
2022/09/02 13:31:25;;;;;;;;;20.33;20.00;;;;;;;;4996229;28;45251;-75
2022/09/02 13:34:10;;;;;;;;;21.67;20.67;;;;;;;;4986647;27;45375;-75
2022/09/02 13:36:36;;;;;;;;;19.00;17.33;;;;;;;;4995111;28;45480;-75
2022/09/02 13:39:19;;;;;;;;;19.67;17.67;;;;;;;;4989149;27;45342;-75
2022/09/02 13:41:45;;;;;;;;;19.33;19.00;;;;;;;;4991852;28;45356;-75
2022/09/02 13:44:12;;;;;;;;;17.00;16.00;;;;;;;;4985097;27;45554;-75
2022/09/02 13:46:49;;;;;;;;;23.00;21.67;;;;;;;;4977107;28;45321;-76
2022/09/02 13:49:22;;;;;;;;;24.00;21.67;;;;;;;;4992938;28;45355;-76
2022/09/02 13:51:50;;;;;;;;;21.00;19.67;;;;;;;;4994463;28;45286;-76
2022/09/02 13:54:20;;;;;;;;;18.33;15.67;;;;;;;;4986259;28;45322;-76
2022/09/02 13:56:45;;;;;;;;;21.00;16.67;;;;;;;;4991922;27;45630;-75
2022/09/02 13:59:11;;;;;;;;;19.00;17.00;;;;;;;;4987840;28;45374;-75
2022/09/02 14:01:38;;;;;;;;;18.00;17.00;;;;;;;;4977805;28;45520;-74
2022/09/02 14:04:06;;;;;;;;;21.67;20.67;;;;;;;;4989817;28;46709;-74
2022/09/02 14:06:35;;;;;;;;;16.33;14.00;;;;;;;;4995916;28;45449;-74
2022/09/02 14:09:01;;;;;;;;;22.67;20.67;;;;;;;;4988519;28;45541;-73
2022/09/02 14:11:27;;;;;;;;;23.33;23.00;;;;;;;;4993075;28;46234;-74
2022/09/02 14:13:54;;;;;;;;;24.67;23.33;;;;;;;;4988958;28;45416;-74
2022/09/02 14:16:22;;;;;;;;;28.00;25.00;;;;;;;;4995528;28;45307;-74
2022/09/02 14:19:06;;;;;;;;;22.00;19.67;;;;;;;;4985652;27;45438;-74
2022/09/02 14:21:31;;;;;;;;;23.00;20.67;;;;;;;;4994950;27;45604;-74
2022/09/02 14:23:57;;;;;;;;;22.33;18.67;;;;;;;;4988990;28;45456;-74
2022/09/02 14:26:32;;;;;;;;;24.33;20.33;;;;;;;;4995226;28;45197;-73
2022/09/02 14:28:58;;;;;;;;;24.67;22.67;;;;;;;;4989776;27;45540;-73